Time;durP1;ratioP1;P1;durP2;ratioP2;P2;SDS_P1;SDS_P2;PMS_P1;PMS_P2;Temp;Humidity;BMP_temperature;BMP_pressure;BME280_temperature;BME280_humidity;BME280_pressure;Samples;Min_cycle;Max_cycle;Signal;HPM_P1;HPM_P2
2022/08/02 00:01:23;;;;;;;10.63;7.10;;;20.90;68.30;;;17.15;97.20;95855.66;4986196;28;20113;-46
2022/08/02 00:03:54;;;;;;;8.80;6.40;;;20.90;68.20;;;17.15;97.36;95852.97;4954010;28;20105;-46
2022/08/02 00:06:30;;;;;;;12.60;6.85;;;20.90;68.10;;;17.15;97.41;95845.69;4983083;28;20027;-44
2022/08/02 00:08:59;;;;;;;9.75;6.57;;;20.90;68.40;;;17.13;97.70;95837.09;4967078;28;20098;-45
2022/08/02 00:11:34;;;;;;;12.05;6.82;;;20.90;68.30;;;17.12;97.38;95835.50;4971413;28;20049;-44
2022/08/02 00:13:59;;;;;;;13.77;7.32;;;20.90;69.10;;;17.11;96.96;95845.50;4971244;28;20022;-45
2022/08/02 00:16:28;;;;;;;12.30;6.65;;;20.80;68.10;;;17.07;96.53;95843.69;4971380;28;20041;-49
2022/08/02 00:18:57;;;;;;;10.77;6.28;;;20.80;68.30;;;17.02;96.58;95849.97;4969548;28;20548;-45
2022/08/02 00:21:23;;;;;;;8.90;6.35;;;20.80;68.20;;;16.97;96.48;95841.19;4971307;28;20049;-44
2022/08/02 00:23:55;;;;;;;11.13;6.43;;;20.70;68.10;;;16.92;97.15;95842.06;4973654;28;20018;-44
2022/08/02 00:26:27;;;;;;;10.98;6.32;;;20.70;68.20;;;16.87;97.54;95834.13;4973982;28;20026;-44
2022/08/02 00:28:55;;;;;;;14.90;6.38;;;20.60;68.10;;;16.83;96.60;95836.59;4975099;28;20022;-44
2022/08/02 00:31:30;;;;;;;10.65;6.75;;;20.60;68.20;;;16.77;96.55;95831.63;4973866;28;20030;-45
2022/08/02 00:33:59;;;;;;;10.93;6.47;;;20.60;68.50;;;16.72;96.80;95835.16;4975158;28;20476;-47
2022/08/02 00:36:30;;;;;;;14.18;7.05;;;20.50;68.40;;;16.71;97.04;95832.78;4974849;28;20040;-44
2022/08/02 00:38:59;;;;;;;14.65;7.43;;;20.50;68.60;;;16.66;96.79;95839.03;4974977;28;20030;-44
2022/08/02 00:41:25;;;;;;;14.55;7.65;;;20.40;68.60;;;16.61;96.62;95833.78;4972996;28;20034;-46
2022/08/02 00:43:53;;;;;;;13.88;7.00;;;20.40;68.50;;;16.56;96.51;95834.66;4974873;28;20022;-45
2022/08/02 00:46:20;;;;;;;12.75;7.60;;;20.30;68.50;;;16.52;96.78;95828.28;4973442;28;20057;-44
2022/08/02 00:48:57;;;;;;;13.80;7.45;;;20.30;68.70;;;16.50;96.91;95824.28;4974678;28;20026;-45
2022/08/02 00:51:29;;;;;;;12.77;6.20;;;20.30;69.00;;;16.45;97.37;95822.47;4974495;28;20030;-45
2022/08/02 00:53:55;;;;;;;14.80;7.03;;;20.20;69.00;;;16.45;98.16;95821.66;4974940;28;20026;-44
2022/08/02 00:56:21;;;;;;;15.70;7.85;;;20.20;68.80;;;16.42;97.78;95820.34;4974643;28;20387;-44
2022/08/02 00:58:53;;;;;;;17.15;7.97;;;20.10;68.90;;;16.39;97.60;95818.28;4974267;28;20022;-49
2022/08/02 01:01:37;;;;;;;17.48;7.53;;;20.10;69.10;;;16.34;97.50;95808.41;4989458;28;20030;-44
2022/08/02 01:04:25;;;;;;;18.90;8.27;;;20.10;69.30;;;16.27;97.66;95815.28;4973476;28;20026;-46
2022/08/02 01:06:53;;;;;;;17.20;8.38;;;20.10;69.30;;;16.23;98.28;95808.88;4972947;28;20030;-50
2022/08/02 01:09:22;;;;;;;17.25;8.40;;;20.00;69.10;;;16.19;98.21;95804.09;4973996;28;20420;-45
2022/08/02 01:11:48;;;;;;;19.08;9.02;;;20.00;69.20;;;16.17;98.34;95800.13;4974350;28;20037;-45
2022/08/02 01:14:15;;;;;;;18.90;8.23;;;19.90;69.30;;;16.12;98.38;95798.31;4974512;28;20113;-49
2022/08/02 01:17:07;;;;;;;19.00;9.23;;;19.90;69.50;;;16.09;98.51;95793.50;4974382;28;20461;-46
2022/08/02 01:20:34;;;;;;;17.73;8.45;;;19.90;69.90;;;16.09;98.97;95800.78;4974436;28;20508;-46
2022/08/02 01:24:14;;;;;;;17.30;8.25;;;19.80;69.60;;;16.08;99.25;95801.88;4974378;28;20033;-46
2022/08/02 01:27:11;;;;;;;19.95;8.10;;;19.80;69.70;;;16.01;98.76;95810.28;4987912;28;20019;-44
2022/08/02 01:29:48;;;;;;;18.63;8.15;;;19.80;69.80;;;15.98;98.55;95808.19;4974238;28;20032;-49
2022/08/02 01:32:28;;;;;;;21.77;7.82;;;19.70;69.80;;;15.93;97.98;95802.91;4972833;28;20106;-44
2022/08/02 01:35:20;;;;;;;19.13;8.73;;;19.70;69.90;;;15.85;98.73;95799.00;4972249;28;20388;-48
2022/08/02 01:38:00;;;;;;;19.75;8.57;;;19.60;69.90;;;15.84;98.56;95797.41;4953865;28;20038;-45
2022/08/02 01:40:36;;;;;;;16.70;7.68;;;19.70;69.90;;;15.82;98.91;95796.09;4984201;28;20065;-48
2022/08/02 01:43:05;;;;;;;16.80;8.05;;;19.60;70.00;;;15.79;98.44;95802.84;4970698;28;20053;-44
2022/08/02 01:45:36;;;;;;;20.50;8.20;;;19.60;69.80;;;15.75;99.40;95801.84;4956909;28;20026;-45
2022/08/02 01:48:05;;;;;;;18.67;8.45;;;19.60;70.10;;;15.73;99.26;95796.78;4988524;28;20111;-44
2022/08/02 01:50:36;;;;;;;20.23;8.70;;;19.50;70.00;;;15.69;99.76;95789.56;4988608;28;20408;-45
2022/08/02 01:53:09;;;;;;;18.35;8.75;;;19.50;70.20;;;15.67;99.57;95786.41;4988514;28;20022;-46
2022/08/02 01:55:50;;;;;;;20.33;8.95;;;19.50;70.40;;;15.65;99.59;95788.53;4988669;28;20026;-51
2022/08/02 01:58:23;;;;;;;21.13;9.00;;;19.50;70.50;;;15.64;99.40;95792.31;4971945;28;20022;-45
2022/08/02 02:00:58;;;;;;;18.20;8.98;;;19.40;70.40;;;15.61;99.57;95787.53;4972144;28;20084;-47
2022/08/02 02:03:28;;;;;;;21.08;9.35;;;19.40;70.50;;;15.55;99.82;95794.06;4973247;28;20223;-44
2022/08/02 02:05:58;;;;;;;27.23;11.20;;;19.40;70.50;;;15.53;99.88;95797.03;4972372;28;20029;-47
2022/08/02 02:08:32;;;;;;;25.60;10.50;;;19.40;70.60;;;15.53;99.89;95801.59;4971733;28;20026;-46
2022/08/02 02:11:10;;;;;;;23.98;9.23;;;19.30;70.70;;;15.50;99.41;95794.94;4988211;28;20120;-45
2022/08/02 02:13:41;;;;;;;18.75;8.98;;;19.30;70.70;;;15.47;99.35;95792.81;4987871;28;20397;-53
2022/08/02 02:16:08;;;;;;;28.13;9.65;;;19.30;70.60;;;15.43;99.48;95795.28;4972222;28;20041;-43
2022/08/02 02:18:42;;;;;;;25.40;10.23;;;19.20;70.50;;;15.39;99.70;95790.81;4971527;28;20371;-46
2022/08/02 02:21:12;;;;;;;20.10;9.23;;;19.20;70.70;;;15.36;100.00;95794.84;4988130;28;20065;-46
2022/08/02 02:23:38;;;;;;;21.77;9.50;;;19.20;70.70;;;15.38;100.00;95789.19;4968417;28;20026;-45
2022/08/02 02:26:06;;;;;;;24.13;9.88;;;19.20;70.60;;;15.34;99.53;95780.91;4979227;28;20049;-50
2022/08/02 02:28:47;;;;;;;26.40;10.10;;;19.20;70.70;;;15.31;100.00;95775.34;4987592;28;20046;-44
2022/08/02 02:31:20;;;;;;;24.98;9.98;;;19.20;71.00;;;15.26;99.96;95779.69;4987038;28;20018;-52
2022/08/02 02:34:44;;;;;;;22.17;9.77;;;19.10;70.90;;;15.24;99.97;95773.81;4987512;28;20441;-45
2022/08/02 02:37:22;;;;;;;22.13;10.02;;;19.00;70.50;;;15.20;100.00;95770.13;4916321;29;20121;-44
2022/08/02 02:39:55;;;;;;;22.23;10.00;;;19.00;70.80;;;15.18;100.00;95779.53;4968410;28;20136;-45
2022/08/02 02:42:31;;;;;;;24.80;11.10;;;19.10;71.00;;;15.18;100.00;95782.22;4971409;28;20180;-45
2022/08/02 02:45:10;;;;;;;24.30;10.57;;;19.00;71.10;;;15.16;100.00;95779.03;4987544;28;20548;-49
2022/08/02 02:47:38;;;;;;;29.90;10.60;;;19.00;71.20;;;15.14;100.00;95781.22;4986161;28;20034;-52
2022/08/02 02:50:06;;;;;;;24.38;10.98;;;18.90;71.00;;;15.10;100.00;95769.44;4972684;28;20033;-43
2022/08/02 02:52:33;;;;;;;26.27;11.50;;;18.90;71.10;;;15.08;100.00;95774.31;4972637;28;20431;-49
2022/08/02 02:55:08;;;;;;;26.95;11.27;;;18.90;71.10;;;15.06;100.00;95774.59;4971495;28;20071;-49
2022/08/02 02:57:45;;;;;;;29.27;11.75;;;18.90;71.30;;;15.02;100.00;95773.56;4971157;28;20030;-44
2022/08/02 03:00:14;;;;;;;25.63;11.07;;;18.90;71.40;;;15.00;100.00;95771.16;4987153;28;20477;-45
2022/08/02 03:02:44;;;;;;;31.67;10.98;;;18.90;71.30;;;14.99;100.00;95771.47;4954817;28;20053;-44
2022/08/02 03:05:18;;;;;;;28.52;12.43;;;18.80;71.30;;;15.00;100.00;95765.00;4972408;28;20033;-45
2022/08/02 03:07:44;;;;;;;27.77;11.40;;;18.80;71.50;;;14.96;100.00;95761.31;4954778;28;20108;-51
2022/08/02 03:10:16;;;;;;;22.95;10.63;;;18.80;71.20;;;14.93;99.80;95770.72;4972239;28;20105;-43
2022/08/02 03:12:42;;;;;;;21.83;9.60;;;18.80;71.20;;;14.89;99.53;95760.88;4972315;28;20484;-45
2022/08/02 03:15:12;;;;;;;29.70;10.68;;;18.80;71.20;;;14.91;100.00;95764.03;4970851;28;20041;-43
2022/08/02 03:17:47;;;;;;;23.02;9.93;;;18.70;71.50;;;14.92;100.00;95765.66;4954557;28;20630;-44
2022/08/02 03:20:21;;;;;;;20.40;10.23;;;18.80;71.60;;;14.88;100.00;95764.63;4972045;28;20495;-48
2022/08/02 03:23:05;;;;;;;27.17;11.35;;;18.70;71.50;;;14.84;100.00;95758.25;4972103;28;20428;-43
2022/08/02 03:25:40;;;;;;;29.85;11.13;;;18.70;71.60;;;14.81;100.00;95760.41;4967553;28;20109;-46
2022/08/02 03:28:06;;;;;;;31.13;10.98;;;18.70;71.60;;;14.77;100.00;95759.38;4979311;28;20120;-45
2022/08/02 03:30:32;;;;;;;24.92;11.05;;;18.60;71.40;;;14.74;100.00;95757.28;4972033;28;20042;-46
2022/08/02 03:32:58;;;;;;;26.27;11.32;;;18.60;71.50;;;14.70;100.00;95750.91;4970749;28;20030;-46
2022/08/02 03:35:27;;;;;;;23.30;10.73;;;18.60;71.50;;;14.68;100.00;95750.38;4971907;28;20059;-44
2022/08/02 03:38:20;;;;;;;28.70;10.98;;;18.60;71.70;;;14.66;100.00;95747.16;4970563;28;20527;-48
2022/08/02 03:40:48;;;;;;;28.92;10.90;;;18.60;71.80;;;14.66;100.00;95754.41;4938981;28;20042;-45
2022/08/02 03:43:16;;;;;;;25.15;10.57;;;18.60;71.60;;;14.61;100.00;95744.56;4970220;28;20042;-52
2022/08/02 03:45:54;;;;;;;27.15;10.73;;;18.50;71.60;;;14.56;100.00;95734.69;4986582;28;20389;-44
2022/08/02 03:48:22;;;;;;;24.33;10.38;;;18.50;71.90;;;14.55;100.00;95738.47;4986225;28;20076;-43
2022/08/02 03:50:52;;;;;;;28.63;10.98;;;18.50;71.70;;;14.53;100.00;95735.25;4986690;28;20033;-45
2022/08/02 03:53:19;;;;;;;27.52;10.45;;;18.50;71.70;;;14.51;100.00;95745.50;4969317;28;20485;-46
2022/08/02 03:55:49;;;;;;;26.05;11.35;;;18.40;71.60;;;14.48;100.00;95739.88;4986304;28;20092;-45
2022/08/02 03:58:24;;;;;;;26.85;10.65;;;18.40;71.80;;;14.46;100.00;95742.03;4954059;28;20049;-47
2022/08/02 04:00:59;;;;;;;19.58;9.25;;;18.40;71.80;;;14.43;100.00;95750.63;4969563;28;20037;-43
2022/08/02 04:03:28;;;;;;;24.42;10.23;;;18.40;71.80;;;14.41;100.00;95750.91;4970649;28;20053;-45
2022/08/02 04:05:55;;;;;;;27.55;10.13;;;18.40;71.90;;;14.44;100.00;95746.88;4986339;28;20029;-46
2022/08/02 04:08:23;;;;;;;30.58;11.20;;;18.30;71.80;;;14.46;100.00;95739.34;4970332;28;20029;-46
2022/08/02 04:13:38;;;;;;;27.55;11.77;;;18.30;71.90;;;14.47;100.00;95744.41;4956761;28;20041;-43
2022/08/02 04:16:21;;;;;;;30.50;12.25;;;18.40;72.20;;;14.48;100.00;95750.59;4970407;28;20026;-44
2022/08/02 04:19:00;;;;;;;;;;;18.40;72.30;;;14.46;100.00;95748.19;4970728;28;20507;-44
2022/08/02 04:21:34;;;;;;;24.50;11.07;;;18.40;71.40;;;14.48;100.00;95756.75;4970031;28;19917;-46
2022/08/02 04:24:07;;;;;;;32.13;10.77;;;18.40;71.90;;;14.53;100.00;95755.91;4970150;28;20480;-43
2022/08/02 04:26:37;;;;;;;27.85;11.23;;;18.40;71.90;;;14.53;100.00;95761.28;4970251;28;20037;-45
2022/08/02 04:29:07;;;;;;;27.58;11.43;;;18.50;72.70;;;14.53;100.00;95763.94;4986197;28;20015;-45
2022/08/02 04:31:37;;;;;;;32.15;11.27;;;18.50;72.00;;;14.52;100.00;95765.84;4986263;28;20500;-45
2022/08/02 04:34:03;;;;;;;27.45;11.75;;;18.50;72.00;;;14.54;100.00;95766.34;4986221;28;20033;-45
2022/08/02 04:36:35;;;;;;;30.33;11.60;;;18.50;72.00;;;14.57;100.00;95767.66;4971254;28;20030;-44
2022/08/02 04:39:03;;;;;;;33.75;11.93;;;18.60;72.20;;;14.62;100.00;95772.97;4970283;28;20022;-44
2022/08/02 04:41:45;;;;;;;30.55;12.25;;;18.60;72.10;;;14.65;100.00;95772.41;4969251;28;20030;-48
2022/08/02 04:44:12;;;;;;;28.33;12.13;;;18.60;72.40;;;14.69;100.00;95773.41;4969522;28;20432;-49
2022/08/02 04:46:44;;;;;;;27.60;11.73;;;18.70;72.30;;;14.77;100.00;95774.69;4969827;28;20431;-46
2022/08/02 04:49:28;;;;;;;31.67;12.30;;;18.70;72.40;;;15.04;100.00;95782.94;4966704;28;20088;-46
2022/08/02 04:51:54;;;;;;;27.02;12.20;;;18.80;73.30;;;15.35;100.00;95781.72;4961026;28;20022;-47
2022/08/02 04:54:20;;;;;;;23.38;10.70;;;19.00;72.40;;;15.63;100.00;95788.81;4968825;28;20019;-49
2022/08/02 04:56:46;;;;;;;23.80;10.50;;;19.10;72.30;;;15.85;100.00;95792.81;4971205;28;20026;-48
2022/08/02 04:59:12;;;;;;;19.10;9.95;;;19.30;72.30;;;16.02;100.00;95793.09;4984940;28;20029;-48
2022/08/02 05:01:41;;;;;;;20.55;9.65;;;19.50;72.10;;;16.13;100.00;95791.03;4969725;28;20068;-47
2022/08/02 05:04:07;;;;;;;14.38;8.95;;;19.70;71.90;;;16.32;100.00;95801.72;4969322;28;20018;-46
2022/08/02 05:06:36;;;;;;;15.02;8.63;;;19.90;71.70;;;16.55;99.54;95791.94;4986037;28;20034;-46
2022/08/02 05:09:02;;;;;;;15.50;7.70;;;20.10;71.60;;;16.80;100.00;95794.16;4971446;28;20420;-47
2022/08/02 05:11:28;;;;;;;13.60;7.75;;;20.30;71.30;;;17.04;99.15;95796.63;4974297;28;20029;-50
2022/08/02 05:13:57;;;;;;;12.70;7.97;;;20.50;71.20;;;17.32;98.42;95793.91;4973872;28;20477;-48
2022/08/02 05:16:29;;;;;;;11.77;7.40;;;20.70;71.10;;;17.58;98.70;95791.47;4973051;28;20029;-48
2022/08/02 05:18:54;;;;;;;9.27;7.18;;;21.00;70.90;;;17.85;97.67;95793.28;4979170;28;20042;-48
2022/08/02 05:21:30;;;;;;;9.15;6.65;;;21.30;70.60;;;18.06;95.94;95790.13;4973035;28;20512;-49
2022/08/02 05:23:56;;;;;;;9.48;6.75;;;21.50;70.40;;;18.24;95.44;95791.84;4956414;28;20030;-49
2022/08/02 05:26:22;;;;;;;12.23;7.00;;;21.70;70.00;;;18.45;94.56;95797.47;4988804;28;20034;-47
2022/08/02 05:28:51;;;;;;;9.18;6.43;;;22.00;69.80;;;18.69;92.10;95805.22;4974327;28;20501;-47
2022/08/02 05:31:16;;;;;;;7.60;5.65;;;22.30;69.60;;;18.94;91.16;95807.25;4920724;28;23479;-49
2022/08/02 05:33:42;;;;;;;6.60;5.43;;;22.60;69.30;;;19.21;89.66;95793.84;4972145;28;20540;-50
2022/08/02 05:36:08;;;;;;;6.85;5.40;;;22.80;68.80;;;19.41;87.76;95802.16;4973980;28;20121;-46
2022/08/02 05:38:34;;;;;;;9.68;5.30;;;23.10;68.30;;;19.53;85.42;95798.81;4972758;28;20022;-51
2022/08/02 05:41:04;;;;;;;5.88;4.97;;;23.30;67.80;;;19.46;84.28;95797.69;4988909;28;20181;-47
2022/08/02 05:43:36;;;;;;;6.63;5.18;;;23.40;67.20;;;19.40;84.58;95789.75;4988204;28;20137;-48
2022/08/02 05:46:02;;;;;;;7.13;4.93;;;23.50;66.80;;;19.47;83.60;95793.91;4973908;28;20065;-51
2022/08/02 05:48:28;;;;;;;6.07;5.47;;;23.60;66.20;;;19.54;83.60;95796.91;4973851;28;20315;-49
2022/08/02 05:51:15;;;;;;;5.53;4.90;;;23.70;65.80;;;19.75;82.47;95795.22;4973712;28;20040;-48
2022/08/02 05:54:00;;;;;;;4.40;4.00;;;23.90;65.50;;;19.93;80.88;95795.19;4973108;28;20026;-48
2022/08/02 05:56:50;;;;;;;4.97;4.35;;;24.00;65.10;;;20.03;80.16;95794.91;4956818;28;20057;-52
2022/08/02 06:00:04;;;;;;;5.10;4.50;;;24.20;64.70;;;20.20;79.35;95797.56;4972606;28;20029;-47
2022/08/02 06:02:42;;;;;;;6.18;4.15;;;24.40;64.20;;;20.50;78.28;95800.38;4969702;28;20688;-50
2022/08/02 06:05:17;;;;;;;4.65;4.15;;;24.70;63.50;;;20.79;76.90;95803.16;4972187;28;20029;-47
2022/08/02 06:07:50;;;;;;;4.32;3.92;;;24.90;62.80;;;21.08;76.03;95806.25;4973309;28;20022;-49
2022/08/02 06:10:26;;;;;;;6.97;5.18;;;25.10;62.30;;;21.21;75.56;95816.03;4971913;28;20026;-50
2022/08/02 06:13:17;;;;;;;5.70;4.90;;;25.30;61.80;;;21.29;75.93;95809.00;4969937;28;20527;-50
2022/08/02 06:15:43;;;;;;;9.35;6.93;;;25.50;61.40;;;21.34;74.79;95801.50;4971520;28;20049;-47
2022/08/02 06:18:09;;;;;;;7.28;5.90;;;25.70;60.70;;;21.30;74.56;95803.25;4971970;28;20424;-50
2022/08/02 06:20:36;;;;;;;9.13;6.80;;;25.70;60.00;;;21.40;74.46;95804.81;4959959;28;20034;-47
2022/08/02 06:23:14;;;;;;;8.57;7.65;;;25.90;59.60;;;21.24;74.99;95816.19;4969532;28;20060;-52
2022/08/02 06:25:46;;;;;;;9.98;7.80;;;25.90;59.40;;;21.12;74.68;95802.56;4954725;28;20049;-48
2022/08/02 06:28:15;;;;;;;9.95;8.05;;;25.90;59.00;;;21.11;75.13;95800.16;4971752;28;20054;-47
2022/08/02 06:30:43;;;;;;;9.23;7.75;;;26.00;58.80;;;21.03;75.50;95804.53;4971545;28;20034;-51
2022/08/02 06:33:12;;;;;;;9.60;8.00;;;26.00;58.50;;;20.84;75.41;95802.22;4972233;28;20427;-46
2022/08/02 06:36:14;;;;;;;9.77;8.23;;;25.90;58.80;;;20.40;77.39;95803.41;4967281;28;20065;-50
2022/08/02 06:39:11;;;;;;;10.50;8.35;;;25.70;58.20;;;20.24;78.05;95809.31;4960429;28;20088;-49
2022/08/02 06:41:41;;;;;;;10.07;8.40;;;25.60;58.20;;;20.11;79.08;95810.31;4954610;28;20393;-53
2022/08/02 06:44:13;;;;;;;10.57;8.02;;;25.50;58.10;;;20.23;78.79;95809.66;4965260;28;20061;-49
2022/08/02 06:46:41;;;;;;;9.35;8.18;;;25.50;58.20;;;20.39;78.13;95812.66;4955214;28;20026;-48
2022/08/02 06:49:07;;;;;;;8.75;7.50;;;25.70;58.10;;;20.60;77.81;95800.06;4972608;28;20022;-46
2022/08/02 06:51:33;;;;;;;10.35;7.28;;;25.90;58.00;;;21.01;76.25;95812.16;4972494;28;20022;-50
2022/08/02 06:54:03;;;;;;;9.40;6.55;;;26.10;58.00;;;21.23;75.65;95808.41;4970565;28;20019;-49
2022/08/02 06:56:31;;;;;;;10.35;7.03;;;26.30;57.80;;;21.63;73.29;95808.03;4971278;28;20054;-53
2022/08/02 06:59:00;;;;;;;7.30;6.50;;;26.50;57.50;;;21.89;72.29;95811.31;4971031;28;20018;-49
2022/08/02 07:01:32;;;;;;;10.20;6.90;;;26.80;57.10;;;22.17;71.82;95816.22;4986758;28;20076;-50
2022/08/02 07:03:58;;;;;;;9.27;6.57;;;27.10;56.70;;;22.39;70.22;95807.72;4970750;28;20364;-51
2022/08/02 07:06:33;;;;;;;7.10;6.40;;;27.30;56.40;;;22.78;69.89;95807.47;4987364;28;20083;-50
2022/08/02 07:08:59;;;;;;;7.28;6.10;;;27.70;55.90;;;22.98;67.94;95808.53;4970878;28;20018;-49
2022/08/02 07:11:25;;;;;;;6.85;6.07;;;27.90;55.30;;;22.99;66.54;95807.41;4983948;28;20850;-51
2022/08/02 07:13:50;;;;;;;7.78;6.03;;;28.10;54.80;;;22.89;67.64;95807.81;4968777;28;20604;-47
2022/08/02 07:16:16;;;;;;;7.07;5.82;;;28.20;54.40;;;22.75;67.07;95808.94;4971944;28;20033;-50
2022/08/02 07:18:42;;;;;;;7.07;6.38;;;28.20;53.90;;;22.70;67.69;95805.66;4971956;28;20500;-48
2022/08/02 07:21:10;;;;;;;6.80;5.55;;;28.30;53.60;;;22.82;67.38;95801.03;4986721;28;20104;-48
2022/08/02 07:23:36;;;;;;;6.88;6.18;;;28.40;53.40;;;22.90;67.13;95806.69;4970162;28;20026;-49
2022/08/02 07:26:02;;;;;;;6.15;5.55;;;28.40;53.00;;;23.13;66.27;95810.59;4971741;28;20081;-49
2022/08/02 07:28:28;;;;;;;6.45;5.80;;;28.60;52.90;;;23.11;65.14;95812.06;4959832;28;20034;-48
2022/08/02 07:30:54;;;;;;;6.63;5.80;;;28.70;52.40;;;23.07;65.67;95812.75;4971961;28;20052;-47
2022/08/02 07:33:21;;;;;;;5.78;5.20;;;28.70;52.00;;;23.37;65.34;95815.22;4970821;28;20026;-47
2022/08/02 07:35:49;;;;;;;5.85;5.25;;;28.90;51.90;;;23.42;64.50;95823.16;4986893;28;20555;-47
2022/08/02 07:38:23;;;;;;;6.13;5.50;;;28.90;51.70;;;23.61;63.41;95813.63;4970282;28;20022;-50
2022/08/02 07:40:50;;;;;;;5.82;5.20;;;29.00;51.40;;;23.69;63.56;95821.69;4967099;28;20054;-52
2022/08/02 07:43:16;;;;;;;6.95;6.05;;;29.20;51.00;;;23.69;64.61;95816.25;4969749;28;20045;-47
2022/08/02 07:45:41;;;;;;;5.45;4.93;;;29.40;50.90;;;23.83;63.50;95823.22;4970504;28;20034;-48
2022/08/02 07:48:16;;;;;;;6.35;5.75;;;29.60;50.60;;;24.01;63.14;95809.00;4971668;28;20033;-50
2022/08/02 07:50:48;;;;;;;8.48;5.70;;;29.70;50.20;;;24.29;62.88;95810.13;4971703;28;20045;-52
2022/08/02 07:53:14;;;;;;;5.63;4.97;;;29.90;50.00;;;24.47;60.71;95806.00;4970969;28;20572;-49
2022/08/02 07:55:43;;;;;;;6.95;5.07;;;30.00;49.70;;;24.76;60.21;95804.81;4970311;28;20054;-48
2022/08/02 07:58:10;;;;;;;5.95;5.35;;;30.20;49.30;;;25.09;59.32;95800.94;4986503;28;20022;-47
2022/08/02 08:00:43;;;;;;;5.93;4.88;;;30.40;49.00;;;25.34;58.40;95802.34;4970432;28;20113;-53
2022/08/02 08:03:23;;;;;;;5.53;4.50;;;30.60;48.50;;;25.48;57.63;95807.38;4971087;28;20042;-50
2022/08/02 08:05:49;;;;;;;7.45;4.82;;;30.90;48.20;;;25.61;57.02;95808.81;4970929;28;20026;-47
2022/08/02 08:08:21;;;;;;;5.32;4.22;;;31.10;47.60;;;25.80;56.81;95812.75;4970154;28;20045;-51
2022/08/02 08:10:50;;;;;;;6.50;5.03;;;31.30;47.10;;;25.82;56.49;95810.44;4970487;28;20130;-47
2022/08/02 08:13:24;;;;;;;5.95;4.97;;;31.50;46.80;;;25.93;55.13;95813.44;4970930;28;20144;-47
2022/08/02 08:15:53;;;;;;;7.00;5.30;;;31.70;46.20;;;25.83;55.23;95807.38;4971480;28;20030;-51
2022/08/02 08:18:28;;;;;;;4.38;3.97;;;31.90;45.80;;;25.81;54.68;95819.78;4971255;28;20109;-51
2022/08/02 08:21:00;;;;;;;8.23;4.60;;;32.00;45.00;;;26.02;55.35;95809.34;4970002;28;20084;-47
2022/08/02 08:23:26;;;;;;;5.35;4.85;;;32.10;44.80;;;26.33;54.14;95815.81;4970887;28;20036;-48
2022/08/02 08:25:58;;;;;;;6.82;4.38;;;32.20;44.60;;;26.60;52.83;95813.97;4970493;28;20472;-52
2022/08/02 08:28:30;;;;;;;4.68;4.25;;;32.50;44.20;;;26.79;52.00;95806.91;4986384;28;20022;-52
2022/08/02 08:31:06;;;;;;;5.15;4.72;;;32.70;43.90;;;26.86;51.59;95810.56;4971322;28;20034;-48
2022/08/02 08:33:35;;;;;;;4.95;3.97;;;32.90;43.60;;;26.76;51.37;95806.50;4969845;28;20015;-49
2022/08/02 08:36:04;;;;;;;4.50;4.10;;;33.10;42.90;;;26.85;51.31;95805.44;4971031;28;20080;-47
2022/08/02 08:38:30;;;;;;;4.75;4.30;;;33.10;42.30;;;26.86;50.87;95807.06;4971260;28;20109;-51
2022/08/02 08:41:02;;;;;;;6.03;4.53;;;33.20;42.00;;;27.15;51.34;95811.06;4969870;28;20084;-51
2022/08/02 08:43:30;;;;;;;4.55;4.10;;;33.30;41.80;;;27.31;52.87;95806.25;4965532;28;20074;-51
2022/08/02 08:46:10;;;;;;;4.80;4.40;;;33.40;42.00;;;27.57;50.06;95799.19;4970347;28;20472;-52
2022/08/02 08:48:48;;;;;;;5.00;4.50;;;33.70;41.90;;;27.76;50.92;95804.53;4974994;28;20092;-49
2022/08/02 08:51:23;;;;;;;7.18;4.80;;;33.80;41.50;;;27.96;49.61;95807.19;4973519;28;20030;-47
2022/08/02 08:53:55;;;;;;;6.18;4.50;;;34.00;41.20;;;28.17;49.13;95806.66;4986373;28;20022;-52
2022/08/02 08:56:34;;;;;;;5.93;4.90;;;34.20;40.90;;;27.97;49.42;95806.03;4973700;28;20044;-47
2022/08/02 08:59:03;;;;;;;5.60;4.25;;;34.20;40.70;;;28.28;50.09;95797.41;4974866;28;20026;-50
2022/08/02 09:01:32;;;;;;;5.15;4.68;;;34.20;40.80;;;28.31;52.04;95807.63;4989598;28;20034;-49
2022/08/02 09:03:58;;;;;;;5.50;5.00;;;34.50;40.30;;;28.42;47.89;95801.50;4972839;28;20121;-51
2022/08/02 09:06:24;;;;;;;5.20;4.78;;;34.70;39.80;;;28.69;47.14;95802.19;4973362;28;20530;-52
2022/08/02 09:08:53;;;;;;;5.82;4.90;;;35.00;39.50;;;29.05;48.45;95804.13;4957278;28;20022;-49
2022/08/02 09:11:26;;;;;;;6.13;5.10;;;35.20;39.30;;;29.28;46.67;95803.13;4957416;28;20461;-48
2022/08/02 09:13:59;;;;;;;6.53;5.32;;;35.50;38.80;;;29.58;44.74;95808.41;4972920;28;20026;-48
2022/08/02 09:16:42;;;;;;;5.45;4.78;;;35.80;38.50;;;29.63;44.28;95805.34;4973092;28;20096;-48
2022/08/02 09:19:26;;;;;;;5.90;5.40;;;36.10;37.70;;;29.58;46.43;95802.16;4973164;28;20061;-48
2022/08/02 09:22:06;;;;;;;5.28;4.78;;;36.40;37.50;;;30.05;46.08;95803.22;4973587;28;20460;-49
2022/08/02 09:24:52;;;;;;;5.38;4.78;;;36.60;37.40;;;30.13;42.91;95816.59;4973762;28;20022;-51
2022/08/02 09:27:21;;;;;;;6.93;4.80;;;36.80;36.90;;;30.20;43.06;95808.41;4985770;28;20034;-49
2022/08/02 09:29:53;;;;;;;5.43;4.93;;;36.90;36.10;;;30.22;43.84;95799.03;4971040;28;20030;-47
2022/08/02 09:32:28;;;;;;;5.50;4.90;;;37.00;35.90;;;29.43;43.54;95804.03;4956323;28;20030;-49
2022/08/02 09:35:03;;;;;;;4.68;4.28;;;37.00;35.40;;;29.78;44.49;95791.72;4973936;28;20037;-50
2022/08/02 09:37:30;;;;;;;5.32;4.65;;;36.90;35.40;;;29.90;44.21;95794.94;4973975;28;20033;-51
2022/08/02 09:40:09;;;;;;;6.95;4.60;;;37.00;35.20;;;29.99;45.11;95797.28;4974301;28;20034;-49
2022/08/02 09:42:35;;;;;;;5.20;4.70;;;37.00;35.30;;;30.22;43.94;95801.75;4973156;28;20409;-53
2022/08/02 09:45:02;;;;;;;5.03;4.63;;;37.00;35.10;;;30.16;44.74;95790.31;4974144;28;20041;-48
2022/08/02 09:47:31;;;;;;;5.72;4.60;;;37.00;35.00;;;29.85;44.03;95794.50;4972430;28;20073;-47
2022/08/02 09:49:57;;;;;;;6.40;4.18;;;37.00;34.80;;;29.93;41.85;95788.66;4973908;28;20528;-48
2022/08/02 09:52:30;;;;;;;4.70;4.10;;;37.00;34.50;;;30.04;40.68;95788.69;4973144;28;20034;-48
2022/08/02 09:55:11;;;;;;;4.75;4.35;;;37.00;33.90;;;30.26;41.05;95791.56;4969850;28;20389;-48
2022/08/02 09:57:41;;;;;;;4.70;4.30;;;37.00;33.80;;;30.34;41.32;95791.22;4973643;28;20030;-48
2022/08/02 10:00:10;;;;;;;7.20;4.18;;;37.10;33.70;;;30.53;40.44;95778.31;4963735;28;20562;-47
2022/08/02 10:02:36;;;;;;;5.88;3.85;;;37.10;33.40;;;30.66;40.75;95783.03;4972245;28;20041;-52
2022/08/02 10:05:06;;;;;;;5.00;4.20;;;37.30;33.30;;;31.10;37.90;95770.16;4972144;28;20388;-51
2022/08/02 10:07:35;;;;;;;4.28;3.88;;;37.40;32.80;;;31.32;37.94;95781.94;4972645;28;20547;-50
2022/08/02 10:10:02;;;;;;;4.82;4.28;;;37.60;32.40;;;31.15;39.37;95774.44;4972318;28;20113;-52
2022/08/02 10:12:28;;;;;;;4.75;3.95;;;37.70;32.40;;;31.06;38.87;95777.63;4971762;28;20078;-48
2022/08/02 10:14:54;;;;;;;6.65;3.75;;;37.80;32.00;;;31.08;39.86;95780.75;4971715;28;20084;-52
2022/08/02 10:17:21;;;;;;;4.13;3.83;;;37.90;31.70;;;31.44;37.34;95778.03;4968648;28;20036;-49
2022/08/02 10:19:53;;;;;;;4.47;3.40;;;38.00;31.40;;;31.26;38.97;95776.03;4966320;28;20033;-49
2022/08/02 10:22:23;;;;;;;4.07;3.67;;;38.10;31.20;;;31.40;36.17;95764.28;4972018;28;20113;-52
2022/08/02 10:24:56;;;;;;;3.78;3.47;;;38.20;30.80;;;31.77;35.83;95761.00;4984950;28;20520;-50
2022/08/02 10:27:26;;;;;;;3.72;3.42;;;38.30;30.40;;;32.17;35.43;95763.66;4973203;28;20038;-51
2022/08/02 10:29:59;;;;;;;3.60;3.30;;;38.50;30.10;;;32.29;35.39;95757.69;4971631;28;20124;-52
2022/08/02 10:32:48;;;;;;;4.57;3.67;;;38.70;30.10;;;32.40;34.99;95752.13;4987499;28;20022;-48
2022/08/02 10:35:25;;;;;;;3.47;3.28;;;38.80;30.00;;;32.56;35.51;95748.91;4972347;28;20436;-53
2022/08/02 10:38:02;;;;;;;3.83;3.50;;;39.00;29.80;;;32.74;32.97;95740.53;4971926;28;20495;-50